1922 NOT_NAMED (1922228N14129)


IBTrACS version v04r00. Visit IBTrACS website for data access.
Please direct all questions to the IBTrACS Q and A forum

Storm track - Intensity - Wind Radii - Intensity Data - Source Data - All data

Summary Information

Storm ID 1922228N14129
Start Aug 15 22Z
End Aug 19 22Z
ATCF IDs
Track status Best track data.

Storm track plot

Map of storm track

Intensity plots

No Intensity information for this storm


Radial wind information

No radial wind information for this storm


Position and Intensity Table

BASIN ISO_TIME_________ NATURE LAT LON
degrees north degrees east
WP 1922-08-15 22:00:00 NR 14.30 129.10
WP 1922-08-16 00:00:00 NR 14.57 128.96
WP 03:00:00 NR 14.96 128.77
WP 06:00:00 NR 15.34 128.59
WP 09:00:00 NR 15.69 128.44
WP 10:00:00 NR 15.80 128.40
WP 12:00:00 NR 16.01 128.33
WP 15:00:00 NR 16.30 128.26
WP 18:00:00 NR 16.59 128.19
WP 21:00:00 NR 16.89 128.13
WP 22:00:00 NR 17.00 128.10
WP 1922-08-17 00:00:00 NR 17.24 128.02
WP 03:00:00 NR 17.62 127.89
WP 06:00:00 NR 18.01 127.75
WP 09:00:00 NR 18.38 127.63
WP 10:00:00 NR 18.50 127.60
WP 12:00:00 NR 18.70 127.54
WP 15:00:00 NR 18.98 127.48
WP 18:00:00 NR 19.27 127.43
WP 21:00:00 NR 19.58 127.41
WP 22:00:00 NR 19.70 127.40
WP 1922-08-18 00:00:00 NR 19.96 127.38
WP 03:00:00 NR 20.38 127.36
WP 06:00:00 NR 20.84 127.37
WP 09:00:00 NR 21.33 127.39
WP 10:00:00 NR 21.50 127.40
WP 12:00:00 NR 21.82 127.48
WP 15:00:00 NR 22.32 127.61
WP 18:00:00 NR 22.84 127.71
WP 21:00:00 NR 23.40 127.73
WP 22:00:00 NR 23.60 127.70
WP 1922-08-19 00:00:00 NR 24.03 127.61
WP 03:00:00 NR 24.71 127.37
WP 06:00:00 NR 25.38 126.99
WP 09:00:00 NR 26.01 126.49
WP 10:00:00 NR 26.20 126.30
WP 12:00:00 NR 26.55 125.87
WP 15:00:00 NR 26.99 125.14
WP 18:00:00 NR 27.36 124.34
WP 21:00:00 NR 27.69 123.49
WP 22:00:00 NR 27.80 123.20

Source Information

Agency Information
USA
TOKYO
CMA
HKO
NEWDELHI
REUNION
BOM
NADI
WELLINGTON
DS824
TD9636 cons_worldwide_trop_cyclone_18710101-19891231-003:Line=6696
TD9635
NEUMANN
MLC

All available IBTrACS Data

SEASON BASIN SUBBASIN ISO_TIME_________ NATURE LAT LON DIST2LAND LANDFALL IFLAG USA SSHS TD9636 LAT TD9636 LON TD9636 STAGE STORM SPEED STORM DIR
Year degrees north degrees east km km 1 degrees north degrees east kts degrees
1922 WP MM 1922-08-15 22:00:00 NR 14.30 129.10 455 451 __________O___ -1 14.30 129.10 4 9 334
1922 WP MM 1922-08-16 00:00:00 NR 14.57 128.96 464 455 __________P___ -1 14.57 128.96 4 9 334
1922 WP MM 03:00:00 NR 14.96 128.77 474 466 __________P___ -1 14.96 128.77 4 9 335
1922 WP MM 06:00:00 NR 15.34 128.59 478 472 __________P___ -1 15.34 128.59 4 8 337
1922 WP MM 09:00:00 NR 15.69 128.44 475 475 __________P___ -1 15.69 128.44 4 8 339
1922 WP MM 10:00:00 NR 15.80 128.40 479 479 __________O___ -1 15.80 128.40 2 7 342
1922 WP MM 12:00:00 NR 16.01 128.33 480 480 __________P___ -1 16.01 128.33 2 6 345
1922 WP MM 15:00:00 NR 16.30 128.26 497 488 __________P___ -1 16.30 128.26 2 6 348
1922 WP MM 18:00:00 NR 16.59 128.19 507 507 __________P___ -1 16.59 128.19 2 6 348
1922 WP MM 21:00:00 NR 16.89 128.13 519 519 __________P___ -1 16.89 128.13 2 6 348
1922 WP MM 22:00:00 NR 17.00 128.10 527 527 __________O___ -1 17.00 128.10 2 7 343
1922 WP MM 1922-08-17 00:00:00 NR 17.24 128.02 534 541 __________P___ -1 17.24 128.02 2 8 342
1922 WP MM 03:00:00 NR 17.62 127.89 557 557 __________P___ -1 17.62 127.89 2 8 342
1922 WP MM 06:00:00 NR 18.01 127.75 573 559 __________P___ -1 18.01 127.75 2 8 343
1922 WP MM 09:00:00 NR 18.38 127.63 559 559 __________P___ -1 18.38 127.63 2 8 343
1922 WP MM 10:00:00 NR 18.50 127.60 559 549 __________O___ -1 18.50 127.60 2 7 345
1922 WP MM 12:00:00 NR 18.70 127.54 549 549 __________P___ -1 18.70 127.54 2 6 347
1922 WP MM 15:00:00 NR 18.98 127.48 551 544 __________P___ -1 18.98 127.48 2 6 349
1922 WP MM 18:00:00 NR 19.27 127.43 546 546 __________P___ -1 19.27 127.43 2 6 353
1922 WP MM 21:00:00 NR 19.58 127.41 552 552 __________P___ -1 19.58 127.41 2 7 354
1922 WP MM 22:00:00 NR 19.70 127.40 555 555 __________O___ -1 19.70 127.40 2 8 356
1922 WP MM 1922-08-18 00:00:00 NR 19.96 127.38 564 564 __________P___ -1 19.96 127.38 2 8 358
1922 WP MM 03:00:00 NR 20.38 127.36 579 579 __________P___ -1 20.38 127.36 2 9 0
1922 WP MM 06:00:00 NR 20.84 127.37 597 602 __________P___ -1 20.84 127.37 2 10 1
1922 WP MM 09:00:00 NR 21.33 127.39 624 629 __________P___ -1 21.33 127.39 2 10 3
1922 WP MM 10:00:00 NR 21.50 127.40 635 635 __________O___ -1 21.50 127.40 2 10 10
1922 WP MM 12:00:00 NR 21.82 127.48 643 631 __________P___ -1 21.82 127.48 2 10 13
1922 WP MM 15:00:00 NR 22.32 127.61 631 620 __________P___ -1 22.32 127.61 2 11 12
1922 WP MM 18:00:00 NR 22.84 127.71 620 601 __________P___ -1 22.84 127.71 2 11 5
1922 WP MM 21:00:00 NR 23.40 127.73 601 597 __________P___ -1 23.40 127.73 2 11 0
1922 WP MM 22:00:00 NR 23.60 127.70 597 577 __________O___ -1 23.60 127.70 2 13 351
1922 WP MM 1922-08-19 00:00:00 NR 24.03 127.61 577 545 __________P___ -1 24.03 127.61 2 14 345
1922 WP MM 03:00:00 NR 24.71 127.37 545 503 __________P___ -1 24.71 127.37 2 15 338
1922 WP MM 06:00:00 NR 25.38 126.99 504 464 __________P___ -1 25.38 126.99 2 15 329
1922 WP MM 09:00:00 NR 26.01 126.49 464 451 __________P___ -1 26.01 126.49 2 15 323
1922 WP MM 10:00:00 NR 26.20 126.30 451 424 __________O___ -1 26.20 126.30 2 16 314
1922 WP MM 12:00:00 NR 26.55 125.87 424 373 __________P___ -1 26.55 125.87 2 16 307
1922 WP MM 15:00:00 NR 26.99 125.14 373 283 __________P___ -1 26.99 125.14 2 16 301
1922 WP MM 18:00:00 NR 27.36 124.34 283 198 __________P___ -1 27.36 124.34 2 16 296
1922 WP MM 21:00:00 NR 27.69 123.49 198 166 __________P___ -1 27.69 123.49 2 16 294
1922 WP MM 22:00:00 NR 27.80 123.20 166 __________O___ -1 27.80 123.20 7 17 293